Time;durP1;ratioP1;P1;durP2;ratioP2;P2;SDS_P1;SDS_P2;PMS_P1;PMS_P2;Temp;Humidity;BMP_temperature;BMP_pressure;BME280_temperature;BME280_humidity;BME280_pressure;Samples;Min_cycle;Max_cycle;Signal;HPM_P1;HPM_P2
2020/12/10 00:00:14;;;;;;;2.50;1.50;;;11.80;99.90;;;;;;4812643;29;20188;-78
2020/12/10 00:02:41;;;;;;;5.57;1.17;;;11.80;99.90;;;;;;4821852;29;20052;-78
2020/12/10 00:05:08;;;;;;;3.45;1.20;;;11.80;99.90;;;;;;4821830;29;20544;-77
2020/12/10 00:07:35;;;;;;;4.30;1.13;;;11.80;99.90;;;;;;4821694;29;20065;-77
2020/12/10 00:10:05;;;;;;;4.10;0.90;;;11.80;99.90;;;;;;4821696;29;20019;-77
2020/12/10 00:12:31;;;;;;;4.70;1.00;;;11.80;99.90;;;;;;4803645;29;20042;-77
2020/12/10 03:51:12;;;;;;;9.73;1.15;;;11.60;99.90;;;;;;4987379;24;22664;-76
2020/12/10 03:53:38;;;;;;;22.23;1.88;;;11.60;99.90;;;;;;4793075;29;20108;-76
2020/12/10 03:56:04;;;;;;;5.65;1.10;;;11.60;99.90;;;;;;4794157;29;20117;-76
2020/12/10 03:58:31;;;;;;;5.53;1.65;;;11.60;99.90;;;;;;4803505;29;20481;-76
2020/12/10 04:00:57;;;;;;;6.75;1.42;;;11.60;99.90;;;;;;4803942;29;20613;-76
2020/12/10 04:03:24;;;;;;;9.45;1.35;;;11.60;99.90;;;;;;4803559;29;20106;-76
2020/12/10 04:05:50;;;;;;;6.97;1.38;;;11.60;99.90;;;;;;4803823;29;20102;-76
2020/12/10 04:08:16;;;;;;;5.00;0.88;;;11.60;99.90;;;;;;4803772;29;20092;-76
2020/12/10 04:10:42;;;;;;;7.70;1.13;;;11.60;99.90;;;;;;4789791;29;20039;-76
2020/12/10 04:13:08;;;;;;;6.65;1.02;;;11.60;99.90;;;;;;4801392;29;20547;-76
2020/12/10 04:15:34;;;;;;;6.45;1.20;;;11.60;99.90;;;;;;4789601;29;20043;-76
2020/12/10 04:18:01;;;;;;;5.05;0.90;;;11.60;99.90;;;;;;4803265;29;20647;-76
2020/12/10 04:20:27;;;;;;;9.57;1.55;;;11.50;99.90;;;;;;4803237;29;20264;-77
2020/12/10 04:22:54;;;;;;;4.43;0.80;;;11.40;99.90;;;;;;4769180;30;20031;-77
2020/12/10 04:25:20;;;;;;;1.65;0.85;;;11.40;99.90;;;;;;4784946;29;20039;-77
2020/12/10 04:27:46;;;;;;;2.40;1.17;;;11.40;99.90;;;;;;4774249;29;20133;-77
2020/12/10 04:30:14;;;;;;;6.88;1.58;;;11.40;99.90;;;;;;4803383;29;20444;-76
2020/12/10 04:32:40;;;;;;;4.65;1.63;;;11.40;99.90;;;;;;4801882;29;20488;-76
2020/12/10 04:35:06;;;;;;;6.95;2.30;;;11.40;99.90;;;;;;4813418;24;20062;-79
2020/12/10 04:37:32;;;;;;;11.48;1.88;;;11.30;99.90;;;;;;4821221;29;20385;-79
2020/12/10 04:39:59;;;;;;;7.45;1.40;;;11.30;99.90;;;;;;4821139;29;20027;-79
2020/12/10 04:42:25;;;;;;;6.43;1.30;;;11.30;99.90;;;;;;4820790;29;20030;-80
2020/12/10 07:41:57;;;;;;;4.13;1.45;;;11.80;99.90;;;;;;4488598;24;20059;-75
2020/12/10 07:44:28;;;;;;;6.65;1.90;;;11.90;99.90;;;;;;4807980;29;20468;-75
2020/12/10 07:46:55;;;;;;;3.92;1.67;;;12.00;99.90;;;;;;4803917;29;20105;-76
2020/12/10 07:49:32;;;;;;;6.30;1.60;;;12.00;99.90;;;;;;4812861;29;20046;-75
2020/12/10 07:52:12;;;;;;;10.88;2.22;;;12.10;99.90;;;;;;4806959;29;20450;-76
2020/12/10 07:54:49;;;;;;;25.45;4.90;;;12.30;99.90;;;;;;4810672;29;20157;-76
2020/12/10 07:57:37;;;;;;;5.22;1.92;;;12.40;99.90;;;;;;4819119;29;20501;-77
2020/12/10 08:00:08;;;;;;;5.60;1.92;;;12.50;99.90;;;;;;4820369;29;20078;-76
2020/12/10 08:03:13;;;;;;;7.72;2.10;;;12.60;99.90;;;;;;4802635;29;20031;-77
2020/12/10 08:05:42;;;;;;;4.00;1.40;;;12.70;99.90;;;;;;4803724;29;20034;-76
2020/12/10 08:08:08;;;;;;;10.68;2.65;;;12.80;99.90;;;;;;4787543;29;20034;-77
2020/12/10 08:10:34;;;;;;;10.25;1.60;;;12.90;99.90;;;;;;4803649;29;20043;-75
2020/12/10 08:13:18;;;;;;;5.30;2.17;;;13.10;99.90;;;;;;4802118;29;20035;-75
2020/12/10 08:15:49;;;;;;;4.78;2.13;;;13.20;99.90;;;;;;4803315;29;20089;-76
2020/12/10 08:18:19;;;;;;;7.00;2.20;;;13.20;99.90;;;;;;4803449;29;20965;-75
2020/12/10 08:20:48;;;;;;;11.00;3.20;;;13.30;99.90;;;;;;4803531;29;20038;-75
2020/12/10 08:23:16;;;;;;;15.75;4.53;;;13.50;99.90;;;;;;4801750;29;20034;-75
2020/12/10 08:26:09;;;;;;;16.02;4.30;;;13.50;99.90;;;;;;4769427;30;20059;-75
2020/12/10 08:28:39;;;;;;;8.82;2.70;;;13.60;99.90;;;;;;4785372;29;20510;-76
2020/12/10 08:31:05;;;;;;;11.30;3.33;;;13.70;99.90;;;;;;4791855;29;20038;-77
2020/12/10 08:33:36;;;;;;;10.65;2.33;;;13.70;99.90;;;;;;4786477;29;20420;-75
2020/12/10 08:36:04;;;;;;;7.28;2.05;;;13.80;99.90;;;;;;4798304;29;20047;-78
2020/12/10 08:38:31;;;;;;;10.02;2.88;;;13.90;99.90;;;;;;4795693;29;20482;-76
2020/12/10 08:40:59;;;;;;;14.73;3.10;;;14.00;99.90;;;;;;4786955;29;20452;-76
2020/12/10 08:43:26;;;;;;;10.13;2.28;;;14.10;99.90;;;;;;4785333;29;20211;-76
2020/12/10 08:45:53;;;;;;;25.75;3.08;;;14.10;99.90;;;;;;4799628;29;20074;-77
2020/12/10 08:48:29;;;;;;;5.25;1.65;;;14.20;99.90;;;;;;4802947;29;20035;-78
2020/12/10 08:50:59;;;;;;;9.98;1.85;;;14.20;99.90;;;;;;4802694;29;20104;-76
2020/12/10 08:53:25;;;;;;;4.38;2.00;;;14.30;99.90;;;;;;4802367;29;20039;-78
2020/12/10 08:55:56;;;;;;;3.20;1.20;;;14.30;99.90;;;;;;4802069;29;20038;-76
2020/12/10 08:58:29;;;;;;;5.40;1.10;;;14.30;99.90;;;;;;4786339;29;20035;-76
2020/12/10 09:01:05;;;;;;;10.05;1.50;;;14.30;99.90;;;;;;4785216;29;20046;-76
2020/12/10 09:03:32;;;;;;;3.67;1.40;;;14.30;99.90;;;;;;4792839;29;20062;-76
2020/12/10 09:05:58;;;;;;;4.32;2.05;;;14.40;99.90;;;;;;4802415;29;20035;-76
2020/12/10 09:08:30;;;;;;;9.45;1.92;;;14.40;99.90;;;;;;4802050;29;20030;-76
2020/12/10 09:10:57;;;;;;;6.38;1.42;;;14.50;99.90;;;;;;4785964;29;20091;-77
2020/12/10 09:13:24;;;;;;;5.05;1.20;;;14.60;99.90;;;;;;4803015;29;20221;-76
2020/12/10 09:15:53;;;;;;;3.38;0.98;;;14.70;99.90;;;;;;4803486;29;20047;-76
2020/12/10 09:18:22;;;;;;;3.92;1.33;;;14.70;99.90;;;;;;4784172;29;20032;-76
2020/12/10 09:20:50;;;;;;;6.70;1.17;;;14.70;99.90;;;;;;4784275;30;20062;-78
2020/12/10 09:23:44;;;;;;;4.78;0.85;;;14.80;99.90;;;;;;4797627;29;20038;-77
2020/12/10 09:26:14;;;;;;;2.85;1.35;;;14.90;99.90;;;;;;4797004;29;20027;-77
2020/12/10 09:28:40;;;;;;;4.20;1.00;;;15.00;99.90;;;;;;4802279;29;20031;-76
2020/12/10 09:31:08;;;;;;;2.85;1.05;;;14.90;99.90;;;;;;4801995;29;20516;-79
2020/12/10 09:33:36;;;;;;;3.08;0.88;;;15.00;99.90;;;;;;4785666;29;20548;-77
2020/12/10 09:36:13;;;;;;;3.47;0.98;;;15.10;99.90;;;;;;4802501;29;20043;-77
2020/12/10 09:38:40;;;;;;;5.28;1.65;;;15.10;99.90;;;;;;4789849;29;20667;-76
2020/12/10 09:41:08;;;;;;;4.93;1.52;;;15.40;99.90;;;;;;4802169;29;20047;-76
2020/12/10 09:43:35;;;;;;;3.47;1.58;;;15.60;99.90;;;;;;4801695;29;20062;-77
2020/12/10 09:46:09;;;;;;;6.88;1.40;;;15.70;99.90;;;;;;4802054;29;20515;-77
2020/12/10 09:48:35;;;;;;;2.75;1.05;;;15.80;99.90;;;;;;4785937;29;20069;-78
2020/12/10 09:51:03;;;;;;;3.58;1.52;;;15.80;99.90;;;;;;4802054;29;20031;-77
2020/12/10 09:53:38;;;;;;;5.03;1.45;;;16.00;99.90;;;;;;4801900;29;20441;-76
2020/12/10 09:58:50;;;;;;;10.55;2.00;;;16.50;99.90;;;;;;4783433;29;20047;-75
2020/12/10 10:01:16;;;;;;;6.80;1.05;;;16.80;99.90;;;;;;4800246;29;20096;-76
2020/12/10 10:03:42;;;;;;;2.17;0.90;;;16.70;99.90;;;;;;4785358;29;20502;-73
2020/12/10 10:06:13;;;;;;;3.08;1.00;;;16.70;99.90;;;;;;4801204;29;20041;-73
2020/12/10 10:09:06;;;;;;;3.22;0.85;;;16.10;99.90;;;;;;4786023;29;20448;-74
2020/12/10 10:11:38;;;;;;;2.42;0.80;;;15.60;99.90;;;;;;4801343;29;20460;-73
2020/12/10 10:14:06;;;;;;;6.43;1.40;;;15.10;99.90;;;;;;4801519;29;20047;-74
2020/12/10 10:16:33;;;;;;;3.25;0.93;;;14.90;99.90;;;;;;4784471;29;20047;-73
2020/12/10 10:19:14;;;;;;;3.75;1.05;;;14.70;99.90;;;;;;4801595;29;20031;-74
2020/12/10 10:22:05;;;;;;;8.10;2.03;;;14.50;99.90;;;;;;4789336;29;20469;-73
2020/12/10 10:24:32;;;;;;;5.75;1.30;;;14.50;99.90;;;;;;4785080;29;20092;-74
2020/12/10 10:26:58;;;;;;;2.55;1.30;;;14.70;99.90;;;;;;4780707;29;20034;-73
2020/12/10 10:29:47;;;;;;;2.90;1.15;;;14.80;99.90;;;;;;4804350;29;20125;-74
2020/12/10 10:32:22;;;;;;;4.63;1.83;;;14.80;99.90;;;;;;4789699;29;20102;-76
2020/12/10 10:35:09;;;;;;;3.83;1.40;;;15.10;99.90;;;;;;4803276;29;20456;-74
2020/12/10 10:37:35;;;;;;;7.72;1.13;;;15.20;99.90;;;;;;4794042;29;20430;-76
2020/12/10 10:40:01;;;;;;;7.68;2.10;;;15.40;99.90;;;;;;4811611;29;20123;-74
2020/12/10 10:42:37;;;;;;;5.13;1.45;;;15.50;99.90;;;;;;4797197;29;20398;-74
2020/12/10 10:45:07;;;;;;;2.67;1.00;;;15.60;99.90;;;;;;4791987;29;20030;-76
2020/12/10 10:47:36;;;;;;;4.18;0.70;;;15.50;99.90;;;;;;4822602;29;20035;-74
2020/12/10 10:50:23;;;;;;;3.15;0.88;;;15.20;99.90;;;;;;4822831;29;20026;-73
2020/12/10 10:52:55;;;;;;;2.33;0.75;;;14.90;99.90;;;;;;4815757;29;20039;-74
2020/12/10 10:55:23;;;;;;;4.53;0.80;;;15.20;99.90;;;;;;4804469;29;20100;-74
2020/12/10 10:57:49;;;;;;;3.80;1.33;;;14.90;99.90;;;;;;4807313;29;20057;-74
2020/12/10 11:00:15;;;;;;;2.28;0.60;;;15.10;99.90;;;;;;4806351;29;20068;-73
2020/12/10 11:03:02;;;;;;;6.20;1.08;;;15.30;99.90;;;;;;4804369;29;20394;-74
2020/12/10 11:05:30;;;;;;;1.92;0.98;;;14.90;99.90;;;;;;4804520;29;20050;-74
2020/12/10 11:07:58;;;;;;;3.15;1.25;;;14.70;99.90;;;;;;4804175;29;20031;-73
2020/12/10 11:10:27;;;;;;;3.15;1.00;;;14.40;99.90;;;;;;4804707;29;20073;-75
2020/12/10 11:13:03;;;;;;;7.32;2.35;;;14.40;99.90;;;;;;4789988;29;20216;-73
2020/12/10 11:15:31;;;;;;;7.13;1.90;;;14.60;99.90;;;;;;4788420;29;20501;-74
2020/12/10 11:17:58;;;;;;;1.48;1.02;;;14.90;99.90;;;;;;4809188;29;20095;-72
2020/12/10 11:20:24;;;;;;;5.32;1.85;;;15.20;99.90;;;;;;4815934;29;20510;-73
2020/12/10 11:22:54;;;;;;;2.95;1.00;;;15.50;99.90;;;;;;4803782;29;20031;-73
2020/12/10 11:25:20;;;;;;;3.72;1.23;;;15.60;99.90;;;;;;4801536;29;20122;-73
2020/12/10 11:27:47;;;;;;;2.58;0.88;;;15.70;99.90;;;;;;4804276;29;20027;-73
2020/12/10 11:30:13;;;;;;;2.58;0.80;;;15.90;99.90;;;;;;4801855;29;20117;-74
2020/12/10 11:32:39;;;;;;;3.55;0.90;;;16.00;99.40;;;;;;4804280;29;20038;-74
2020/12/10 11:35:06;;;;;;;4.35;0.90;;;15.80;99.90;;;;;;4798145;29;20042;-77
2020/12/10 11:37:33;;;;;;;4.10;1.85;;;15.90;99.50;;;;;;4788710;29;20031;-73
2020/12/10 11:40:19;;;;;;;3.08;0.90;;;15.90;99.90;;;;;;4792541;29;20031;-73
2020/12/10 11:42:48;;;;;;;5.10;0.95;;;15.80;98.90;;;;;;4783356;29;20058;-73
2020/12/10 11:45:34;;;;;;;7.30;1.35;;;15.70;98.80;;;;;;4770377;30;20039;-73
2020/12/10 11:48:04;;;;;;;2.03;1.00;;;15.60;98.70;;;;;;4773212;29;20035;-73
2020/12/10 11:50:34;;;;;;;3.25;0.90;;;15.90;99.30;;;;;;4799356;29;20050;-76
2020/12/10 11:53:20;;;;;;;0.43;0.40;;;15.60;98.00;;;;;;4785440;29;20440;-73
2020/12/10 11:55:46;;;;;;;3.00;1.02;;;15.60;98.90;;;;;;4785732;30;20071;-74
2020/12/10 11:58:13;;;;;;;2.75;0.77;;;15.50;96.70;;;;;;4786522;29;20046;-74
2020/12/10 12:00:39;;;;;;;1.63;0.50;;;15.60;96.40;;;;;;4798753;29;20043;-73
2020/12/10 12:03:07;;;;;;;6.10;0.85;;;15.50;96.50;;;;;;4803706;29;20035;-73
2020/12/10 12:05:33;;;;;;;1.83;0.60;;;15.70;97.20;;;;;;4793645;29;20038;-74
2020/12/10 12:08:04;;;;;;;3.78;0.70;;;15.70;96.50;;;;;;4760431;29;20035;-73
2020/12/10 12:10:52;;;;;;;2.55;0.50;;;15.80;96.40;;;;;;4792944;29;20042;-76
2020/12/10 12:13:21;;;;;;;1.92;0.63;;;15.90;95.80;;;;;;4795947;29;20062;-73
2020/12/10 12:15:47;;;;;;;2.55;0.80;;;15.80;96.00;;;;;;4771031;30;20047;-72
2020/12/10 12:18:19;;;;;;;4.40;0.40;;;16.00;95.50;;;;;;4794523;29;20026;-73
2020/12/10 12:20:45;;;;;;;1.65;0.88;;;15.60;95.10;;;;;;4787781;29;20513;-72
2020/12/10 12:23:29;;;;;;;2.03;0.77;;;15.50;96.20;;;;;;4802989;29;20054;-74
2020/12/10 12:25:55;;;;;;;1.88;0.68;;;15.10;96.60;;;;;;4803095;29;20100;-75
2020/12/10 12:28:26;;;;;;;2.78;0.40;;;14.90;96.90;;;;;;4792476;29;20035;-73
2020/12/10 12:31:12;;;;;;;3.08;0.60;;;15.10;97.00;;;;;;4755521;30;20135;-73
2020/12/10 12:33:38;;;;;;;7.38;0.93;;;15.60;97.50;;;;;;4768376;30;20597;-73
2020/12/10 12:36:08;;;;;;;3.92;1.10;;;16.20;96.20;;;;;;4768558;29;20059;-73
2020/12/10 12:38:34;;;;;;;0.65;0.40;;;16.30;96.20;;;;;;4793339;29;20046;-77
2020/12/10 12:41:11;;;;;;;2.40;0.38;;;16.40;95.50;;;;;;4787945;29;20051;-73
2020/12/10 12:43:40;;;;;;;2.15;0.50;;;16.50;94.90;;;;;;4786792;29;20063;-77
2020/12/10 12:46:58;;;;;;;0.85;0.57;;;16.70;94.60;;;;;;4797270;29;20051;-72
2020/12/10 12:49:24;;;;;;;6.53;1.35;;;16.50;93.80;;;;;;4783478;29;20050;-73
2020/12/10 12:51:56;;;;;;;3.97;1.17;;;16.70;94.90;;;;;;4792229;29;20027;-74
2020/12/10 12:54:25;;;;;;;1.45;0.80;;;16.60;94.90;;;;;;4799959;29;20039;-74
2020/12/10 12:56:51;;;;;;;3.05;1.35;;;16.60;94.50;;;;;;4801047;29;20031;-74
2020/12/10 12:59:19;;;;;;;4.32;1.45;;;16.60;94.40;;;;;;4797275;29;20561;-73
2020/12/10 13:02:05;;;;;;;5.15;0.98;;;16.60;94.60;;;;;;4780127;29;20382;-74
2020/12/10 13:04:46;;;;;;;1.75;0.60;;;16.30;95.40;;;;;;4801183;29;20050;-73
2020/12/10 13:07:12;;;;;;;1.85;0.77;;;16.00;96.00;;;;;;4801786;29;20046;-73
2020/12/10 13:09:38;;;;;;;3.05;1.02;;;15.90;96.90;;;;;;4802646;29;20033;-76
2020/12/10 13:12:25;;;;;;;1.90;0.77;;;15.70;97.20;;;;;;4802253;29;20034;-75
2020/12/10 13:14:51;;;;;;;4.45;1.00;;;15.90;97.00;;;;;;4783387;29;20487;-81
2020/12/10 13:17:22;;;;;;;12.50;1.15;;;16.00;97.00;;;;;;4782838;29;20063;-74
2020/12/10 13:19:51;;;;;;;2.53;0.80;;;15.50;96.90;;;;;;4797152;29;20489;-74
2020/12/10 13:22:20;;;;;;;3.25;1.00;;;15.10;97.30;;;;;;4794827;29;20030;-74
2020/12/10 13:24:48;;;;;;;3.38;0.95;;;15.10;98.00;;;;;;4802378;29;20113;-74
2020/12/10 13:27:38;;;;;;;5.78;1.10;;;15.10;98.40;;;;;;4785948;29;20444;-74
2020/12/10 13:30:06;;;;;;;5.45;1.65;;;15.00;98.60;;;;;;4794771;29;20126;-75
2020/12/10 13:32:32;;;;;;;4.95;1.10;;;15.00;98.90;;;;;;4768134;30;20023;-73
2020/12/10 13:34:58;;;;;;;3.92;1.02;;;14.90;99.10;;;;;;4783603;30;20039;-73
2020/12/10 13:37:33;;;;;;;4.65;1.05;;;14.80;99.50;;;;;;4783827;30;20438;-73
2020/12/10 13:39:59;;;;;;;6.95;1.52;;;14.80;99.90;;;;;;4783781;30;20043;-73
2020/12/10 13:42:25;;;;;;;6.43;1.13;;;14.70;99.90;;;;;;4768620;30;20377;-73
2020/12/10 13:44:53;;;;;;;4.43;1.30;;;14.50;99.90;;;;;;4784246;30;20487;-74
2020/12/10 13:47:22;;;;;;;8.02;1.27;;;14.30;99.90;;;;;;4784219;30;20458;-73
2020/12/10 13:49:50;;;;;;;3.65;1.05;;;14.20;99.90;;;;;;4787272;29;20077;-73
2020/12/10 13:52:18;;;;;;;4.72;1.27;;;14.30;99.90;;;;;;4802410;29;20120;-73
2020/12/10 13:55:07;;;;;;;7.38;1.65;;;14.40;99.90;;;;;;4801820;29;20057;-73
2020/12/10 13:57:56;;;;;;;4.05;1.27;;;14.60;99.90;;;;;;4802264;29;20049;-73
2020/12/10 14:00:22;;;;;;;4.30;0.93;;;14.80;99.90;;;;;;4794180;29;20035;-74
2020/12/10 14:02:50;;;;;;;2.50;0.90;;;15.00;99.90;;;;;;4767657;30;20039;-73
2020/12/10 14:05:25;;;;;;;7.38;1.40;;;15.40;99.90;;;;;;4783906;30;20587;-73
2020/12/10 14:08:21;;;;;;;6.72;3.83;;;15.30;99.90;;;;;;4768170;30;20402;-73
2020/12/10 14:10:47;;;;;;;10.40;3.03;;;15.40;99.90;;;;;;4790494;29;20172;-73
2020/12/10 14:13:33;;;;;;;4.38;2.00;;;15.60;99.90;;;;;;4785935;29;20126;-76
2020/12/10 14:16:03;;;;;;;3.03;1.52;;;15.70;99.90;;;;;;4801807;29;20092;-76
2020/12/10 14:18:30;;;;;;;4.93;1.67;;;15.80;99.90;;;;;;4785794;29;20035;-73
2020/12/10 14:20:56;;;;;;;4.53;2.03;;;15.90;99.90;;;;;;4801374;29;20042;-73
2020/12/10 14:23:22;;;;;;;5.90;1.35;;;16.10;99.90;;;;;;4801848;29;20164;-73
2020/12/10 14:26:16;;;;;;;3.95;1.02;;;15.90;99.30;;;;;;4787065;29;20103;-75
2020/12/10 14:28:52;;;;;;;3.22;1.02;;;15.60;99.90;;;;;;4801396;29;20070;-73
2020/12/10 14:31:19;;;;;;;4.18;1.55;;;15.30;99.90;;;;;;4796013;29;20118;-73
2020/12/10 14:33:45;;;;;;;5.78;1.15;;;14.90;99.90;;;;;;4783906;29;20110;-73
2020/12/10 14:36:14;;;;;;;4.90;1.70;;;14.60;99.90;;;;;;4767731;30;20051;-73
2020/12/10 14:38:40;;;;;;;4.28;1.45;;;14.60;99.90;;;;;;4783620;30;20031;-74
2020/12/10 14:41:39;;;;;;;4.97;1.90;;;14.50;99.90;;;;;;4784016;29;20031;-76
2020/12/10 14:44:10;;;;;;;5.72;1.15;;;14.40;99.90;;;;;;4800884;29;20055;-73
2020/12/10 14:46:36;;;;;;;2.72;1.33;;;14.30;99.90;;;;;;4801672;29;20050;-73
2020/12/10 14:49:03;;;;;;;5.20;1.40;;;14.30;99.90;;;;;;4799676;29;20520;-73
2020/12/10 14:51:38;;;;;;;2.35;1.20;;;14.40;99.90;;;;;;4793146;29;20031;-73
2020/12/10 14:54:06;;;;;;;3.60;0.80;;;14.30;99.90;;;;;;4776789;29;20502;-74
2020/12/10 14:56:35;;;;;;;6.10;0.95;;;14.30;99.90;;;;;;4787063;29;20049;-73
2020/12/10 14:59:04;;;;;;;5.95;1.80;;;14.10;99.90;;;;;;4793205;29;20070;-74
2020/12/10 15:01:51;;;;;;;4.60;1.45;;;14.10;99.90;;;;;;4782805;29;20043;-73
2020/12/10 15:04:17;;;;;;;10.10;1.48;;;14.30;99.90;;;;;;4784125;29;20027;-74
2020/12/10 15:06:47;;;;;;;3.28;1.13;;;14.40;99.90;;;;;;4787513;29;20039;-75
2020/12/10 15:09:16;;;;;;;6.95;1.30;;;14.50;99.90;;;;;;4795517;29;20103;-74
2020/12/10 15:11:42;;;;;;;4.47;1.33;;;14.60;99.90;;;;;;4804028;29;20513;-74
2020/12/10 15:14:09;;;;;;;5.35;1.45;;;14.70;99.90;;;;;;4801532;29;20027;-73
2020/12/10 15:16:46;;;;;;;4.65;1.17;;;14.50;99.90;;;;;;4803018;29;20402;-74
2020/12/10 15:19:26;;;;;;;1.88;0.70;;;14.40;99.90;;;;;;4772331;30;20075;-76
2020/12/10 15:22:15;;;;;;;3.53;1.40;;;14.30;99.90;;;;;;4796053;29;20038;-75
2020/12/10 15:24:44;;;;;;;21.23;9.65;;;14.30;99.90;;;;;;4788041;29;20066;-75
2020/12/10 15:27:35;;;;;;;42.58;11.65;;;14.20;99.90;;;;;;4791421;29;20038;-72
2020/12/10 15:30:02;;;;;;;2.78;2.17;;;14.10;99.90;;;;;;4802117;29;20570;-73
2020/12/10 15:32:32;;;;;;;4.10;1.10;;;14.00;99.90;;;;;;4791013;29;20114;-73
2020/12/10 15:35:08;;;;;;;6.45;0.93;;;14.00;99.90;;;;;;4780014;29;20085;-73
2020/12/10 15:37:54;;;;;;;4.85;1.20;;;14.00;99.90;;;;;;4803588;29;20475;-74
2020/12/10 15:40:21;;;;;;;5.47;1.50;;;13.90;99.90;;;;;;4803695;29;20031;-73
2020/12/10 15:43:09;;;;;;;10.48;2.08;;;13.80;99.90;;;;;;4787290;29;20044;-76
2020/12/10 15:45:35;;;;;;;2.53;1.90;;;13.60;99.90;;;;;;4800467;29;20026;-73
2020/12/10 15:48:01;;;;;;;5.03;1.35;;;13.40;99.90;;;;;;4803821;29;20072;-74
2020/12/10 15:50:27;;;;;;;4.43;2.78;;;13.20;99.90;;;;;;4802027;29;20031;-72
2020/12/10 15:52:53;;;;;;;4.50;2.10;;;13.00;99.90;;;;;;4796954;29;20038;-73
2020/12/10 15:55:21;;;;;;;3.15;1.35;;;12.80;99.90;;;;;;4783685;29;20413;-73
2020/12/10 15:58:11;;;;;;;3.67;1.40;;;12.70;99.90;;;;;;4787223;29;20034;-74
2020/12/10 16:00:58;;;;;;;4.70;1.55;;;12.70;99.90;;;;;;4785245;29;20032;-73
2020/12/10 16:03:24;;;;;;;4.85;0.95;;;12.80;99.90;;;;;;4769412;30;20443;-73
2020/12/10 16:06:11;;;;;;;4.18;2.85;;;12.90;99.90;;;;;;4785981;29;20108;-73
2020/12/10 16:08:38;;;;;;;8.75;4.40;;;13.00;99.90;;;;;;4785634;29;20027;-76
2020/12/10 16:11:04;;;;;;;4.55;3.92;;;13.10;99.90;;;;;;4785687;29;20487;-73
2020/12/10 16:13:31;;;;;;;6.10;2.58;;;13.20;99.90;;;;;;4785499;29;20031;-75
2020/12/10 16:15:57;;;;;;;3.40;2.55;;;13.20;99.90;;;;;;4800756;29;20047;-73
2020/12/10 16:18:44;;;;;;;4.13;2.13;;;13.30;99.90;;;;;;4785193;30;20050;-73
2020/12/10 16:21:14;;;;;;;10.75;1.92;;;13.40;99.90;;;;;;4785603;29;20031;-74
2020/12/10 16:23:40;;;;;;;7.25;1.75;;;13.40;99.90;;;;;;4786730;29;20137;-73
2020/12/10 16:26:08;;;;;;;4.75;0.93;;;13.50;99.90;;;;;;4803095;29;20039;-73
2020/12/10 16:28:35;;;;;;;31.38;1.83;;;13.50;99.90;;;;;;4802892;29;20494;-73
2020/12/10 16:31:01;;;;;;;7.35;1.58;;;13.50;99.90;;;;;;4802917;29;20058;-74
2020/12/10 16:33:27;;;;;;;3.60;1.95;;;13.50;99.90;;;;;;4802295;29;20046;-73
2020/12/10 16:35:55;;;;;;;8.23;2.25;;;13.50;99.90;;;;;;4803084;29;20051;-74
2020/12/10 16:38:21;;;;;;;9.02;1.98;;;13.50;99.90;;;;;;4802876;29;20031;-73
2020/12/10 16:40:49;;;;;;;10.05;3.03;;;13.50;99.90;;;;;;4803066;29;20042;-73
2020/12/10 16:43:15;;;;;;;12.75;4.38;;;13.50;99.90;;;;;;4795456;29;20053;-73
2020/12/10 16:45:42;;;;;;;17.98;5.70;;;13.50;99.90;;;;;;4800551;29;20035;-73
2020/12/10 16:48:08;;;;;;;7.80;3.58;;;13.40;99.90;;;;;;4785151;29;20436;-73
2020/12/10 16:50:34;;;;;;;5.88;2.00;;;13.40;99.90;;;;;;4802705;29;20454;-73
2020/12/10 16:53:00;;;;;;;3.00;1.10;;;13.30;99.90;;;;;;4803059;29;20066;-73
2020/12/10 16:55:26;;;;;;;8.98;1.83;;;13.30;99.90;;;;;;4785153;29;20138;-73
2020/12/10 16:57:52;;;;;;;27.63;1.98;;;13.20;99.90;;;;;;4789396;29;20114;-73
2020/12/10 17:00:18;;;;;;;5.28;1.45;;;13.20;99.90;;;;;;4800890;29;20073;-73
2020/12/10 17:02:44;;;;;;;18.77;2.67;;;13.10;99.90;;;;;;4802867;29;20385;-73
2020/12/10 17:05:11;;;;;;;27.67;2.80;;;13.10;99.90;;;;;;4790090;29;20039;-73
2020/12/10 17:07:38;;;;;;;18.33;3.33;;;13.10;99.90;;;;;;4796526;29;20038;-75
2020/12/10 17:10:05;;;;;;;11.68;3.25;;;13.00;99.90;;;;;;4797079;29;20043;-75
2020/12/10 17:12:32;;;;;;;11.20;2.28;;;13.00;99.90;;;;;;4784937;29;20106;-75
2020/12/10 17:14:59;;;;;;;13.15;1.98;;;12.90;99.90;;;;;;4796308;29;20132;-74
2020/12/10 17:17:25;;;;;;;15.60;2.92;;;12.90;99.90;;;;;;4802238;29;20371;-74
2020/12/10 17:19:51;;;;;;;21.58;2.33;;;12.80;99.90;;;;;;4802133;29;20034;-74
2020/12/10 17:22:17;;;;;;;13.88;2.53;;;12.80;99.90;;;;;;4783899;29;20664;-75
2020/12/10 17:24:43;;;;;;;6.07;1.25;;;12.70;99.90;;;;;;4787204;29;20035;-74
2020/12/10 17:27:10;;;;;;;6.65;1.30;;;12.70;99.90;;;;;;4784103;29;20059;-74
2020/12/10 17:29:36;;;;;;;7.03;1.73;;;12.60;99.90;;;;;;4785214;29;20043;-74
2020/12/10 17:32:03;;;;;;;7.82;1.88;;;12.60;99.90;;;;;;4792824;29;20050;-74
2020/12/10 17:34:29;;;;;;;4.50;1.23;;;12.60;99.90;;;;;;4795395;29;20035;-73
2020/12/10 17:36:57;;;;;;;3.05;1.25;;;12.60;99.90;;;;;;4784364;29;20045;-76
2020/12/10 17:39:23;;;;;;;12.02;1.95;;;12.50;99.90;;;;;;4793563;29;20525;-74
2020/12/10 17:41:49;;;;;;;4.35;1.38;;;12.60;99.90;;;;;;4788172;29;20035;-75
2020/12/10 17:44:16;;;;;;;5.75;1.88;;;12.60;99.90;;;;;;4749864;30;20052;-76
2020/12/10 17:46:43;;;;;;;5.13;2.15;;;12.60;99.90;;;;;;4752623;30;20028;-75
2020/12/10 17:49:09;;;;;;;9.10;1.88;;;12.60;99.90;;;;;;4765947;30;20032;-76
2020/12/10 17:51:35;;;;;;;7.82;2.15;;;12.70;99.90;;;;;;4765396;30;20399;-73
2020/12/10 17:54:01;;;;;;;3.80;2.58;;;12.70;99.90;;;;;;4746956;30;20397;-77
2020/12/10 17:56:27;;;;;;;5.75;2.63;;;12.70;99.90;;;;;;4747949;30;20587;-75
2020/12/10 17:58:53;;;;;;;7.25;2.70;;;12.70;99.90;;;;;;4748062;30;20032;-75
2020/12/10 18:01:19;;;;;;;7.88;2.92;;;12.80;99.90;;;;;;4752251;30;20035;-76
2020/12/10 18:03:46;;;;;;;11.10;3.88;;;12.80;99.90;;;;;;4765330;30;20031;-75
2020/12/10 18:06:12;;;;;;;8.13;3.70;;;12.80;99.90;;;;;;4764048;30;20039;-74
2020/12/10 18:08:39;;;;;;;9.40;3.72;;;12.90;99.90;;;;;;4764183;30;20036;-74
2020/12/10 18:11:06;;;;;;;6.45;3.50;;;12.80;99.90;;;;;;4763987;30;20036;-77
2020/12/10 18:13:33;;;;;;;9.48;3.83;;;12.90;99.90;;;;;;4762817;30;20062;-77
2020/12/10 18:16:05;;;;;;;6.10;3.42;;;12.80;99.90;;;;;;4764815;30;20036;-74
2020/12/10 18:18:32;;;;;;;17.17;4.43;;;12.70;99.90;;;;;;4764387;30;20024;-74
2020/12/10 18:20:59;;;;;;;14.90;5.40;;;12.70;99.90;;;;;;4764855;30;20036;-75
2020/12/10 18:23:25;;;;;;;14.15;6.40;;;12.60;99.90;;;;;;4759311;30;20496;-74
2020/12/10 18:25:52;;;;;;;16.63;6.88;;;12.60;99.90;;;;;;4748267;30;20033;-75
2020/12/10 18:28:18;;;;;;;15.75;7.80;;;12.50;99.90;;;;;;4748111;30;20036;-74
2020/12/10 18:30:44;;;;;;;19.13;10.05;;;12.50;99.90;;;;;;4748231;30;20032;-75
2020/12/10 18:33:11;;;;;;;22.02;10.20;;;12.40;99.90;;;;;;4748868;30;20503;-76
2020/12/10 18:35:37;;;;;;;26.42;12.40;;;12.40;99.90;;;;;;4753883;30;20098;-75
2020/12/10 18:38:03;;;;;;;27.67;13.25;;;12.30;99.90;;;;;;4747990;30;20366;-74
2020/12/10 18:40:30;;;;;;;33.22;17.30;;;12.30;99.90;;;;;;4747897;30;20516;-75
2020/12/10 18:42:56;;;;;;;37.88;19.27;;;12.30;99.90;;;;;;4759836;30;20066;-75
2020/12/10 18:45:24;;;;;;;36.08;18.05;;;12.20;99.90;;;;;;4798439;29;20053;-76
2020/12/10 18:47:50;;;;;;;23.83;12.18;;;12.20;99.90;;;;;;4798927;29;20031;-75
2020/12/10 18:50:16;;;;;;;25.13;13.05;;;12.10;99.90;;;;;;4793208;29;20129;-74
2020/12/10 18:52:43;;;;;;;21.60;11.63;;;12.10;99.90;;;;;;4796283;29;20203;-74
2020/12/10 18:55:11;;;;;;;23.42;11.20;;;12.10;99.90;;;;;;4800945;29;20122;-74
2020/12/10 18:57:39;;;;;;;22.05;12.27;;;12.00;99.90;;;;;;4805041;29;20401;-75
2020/12/10 19:00:07;;;;;;;28.75;14.63;;;12.00;99.90;;;;;;4788474;29;20417;-74
2020/12/10 19:02:49;;;;;;;29.63;16.52;;;12.00;99.90;;;;;;4804882;29;20191;-74
2020/12/10 19:05:16;;;;;;;26.85;12.35;;;11.90;99.90;;;;;;4792669;29;20031;-74
2020/12/10 19:07:43;;;;;;;19.35;12.13;;;11.90;99.90;;;;;;4786912;29;20393;-77
2020/12/10 19:10:10;;;;;;;20.23;11.50;;;11.90;99.90;;;;;;4797688;29;20035;-77
2020/12/10 19:12:39;;;;;;;18.67;11.18;;;11.90;99.90;;;;;;4773550;29;20049;-74
2020/12/10 19:15:06;;;;;;;23.40;11.75;;;11.90;99.90;;;;;;4794018;29;20065;-73
2020/12/10 19:17:32;;;;;;;19.85;11.95;;;11.90;99.90;;;;;;4804410;29;20031;-76
2020/12/10 19:20:00;;;;;;;20.20;11.38;;;11.90;99.90;;;;;;4804572;29;20486;-74
2020/12/10 19:22:26;;;;;;;25.63;11.27;;;11.90;99.90;;;;;;4804300;29;20307;-73
2020/12/10 19:24:53;;;;;;;19.33;10.27;;;11.90;99.90;;;;;;4800089;29;20036;-73
2020/12/10 19:27:19;;;;;;;22.85;11.55;;;11.90;99.90;;;;;;4804653;29;20035;-73
2020/12/10 19:29:46;;;;;;;19.77;10.90;;;11.90;99.90;;;;;;4787896;29;20505;-73
2020/12/10 19:32:13;;;;;;;18.00;10.55;;;11.90;99.90;;;;;;4804473;29;20046;-73
2020/12/10 19:34:41;;;;;;;19.70;10.85;;;11.90;99.90;;;;;;4804474;29;20042;-74